Time;durP1;ratioP1;P1;durP2;ratioP2;P2;SDS_P1;SDS_P2;PMS_P1;PMS_P2;Temp;Humidity;BMP_temperature;BMP_pressure;BME280_temperature;BME280_humidity;BME280_pressure;Samples;Min_cycle;Max_cycle;Signal;HPM_P1;HPM_P2
2022/06/14 00:01:31;;;;;;;8.87;3.50;;;;;;;13.56;67.34;99214.38;5084356;28;20202;-50
2022/06/14 00:03:58;;;;;;;7.07;4.37;;;;;;;13.59;67.53;99219.31;5086588;28;20272;-50
2022/06/14 00:06:28;;;;;;;7.33;3.60;;;;;;;13.63;66.91;99217.16;5083705;28;20197;-50
2022/06/14 00:08:55;;;;;;;11.23;3.60;;;;;;;13.63;65.94;99210.13;5084052;28;20237;-50
2022/06/14 00:11:25;;;;;;;7.37;3.80;;;;;;;13.67;65.80;99214.09;5085583;28;20187;-50
2022/06/14 00:13:54;;;;;;;6.47;3.40;;;;;;;13.66;66.25;99215.06;5087228;28;20344;-50
2022/06/14 00:16:23;;;;;;;9.93;3.60;;;;;;;13.69;67.00;99216.56;5083691;28;20274;-50
2022/06/14 00:18:51;;;;;;;7.77;3.63;;;;;;;13.56;67.98;99214.38;5084404;28;20290;-50
2022/06/14 00:21:19;;;;;;;7.43;3.10;;;;;;;13.51;66.87;99206.94;5083737;28;20633;-50
2022/06/14 00:23:46;;;;;;;13.07;3.40;;;;;;;13.44;66.79;99195.44;5085534;28;20194;-50
2022/06/14 00:26:14;;;;;;;7.87;3.80;;;;;;;13.42;67.35;99194.75;5084327;28;20282;-50
2022/06/14 00:28:43;;;;;;;10.10;3.57;;;;;;;13.36;67.95;99196.19;5083254;28;20214;-50
2022/06/14 00:31:14;;;;;;;9.37;3.50;;;;;;;13.31;68.40;99197.59;5083683;28;20205;-50
2022/06/14 00:33:43;;;;;;;10.50;3.70;;;;;;;13.24;68.59;99200.03;5084525;28;20194;-50
2022/06/14 00:36:20;;;;;;;9.83;3.53;;;;;;;13.21;67.95;99197.72;5085886;28;20628;-50
2022/06/14 00:38:48;;;;;;;7.83;3.57;;;;;;;13.34;68.65;99200.75;5085165;28;20206;-50
2022/06/14 00:41:28;;;;;;;6.57;3.00;;;;;;;13.38;68.24;99194.22;5085383;28;20717;-51
2022/06/14 00:43:55;;;;;;;8.60;3.73;;;;;;;13.36;68.10;99195.34;5084899;28;20214;-51
2022/06/14 00:46:27;;;;;;;8.33;3.67;;;;;;;13.27;68.85;99192.69;5084918;28;20293;-52
2022/06/14 00:49:03;;;;;;;6.10;3.07;;;;;;;13.28;69.09;99194.31;5085760;28;20225;-50
2022/06/14 00:51:33;;;;;;;4.83;3.10;;;;;;;13.16;68.92;99192.13;5083834;28;20207;-50
2022/06/14 00:54:11;;;;;;;6.17;3.83;;;;;;;13.09;70.02;99192.72;5084158;28;20185;-50
2022/06/14 00:56:45;;;;;;;9.17;4.17;;;;;;;12.95;70.19;99185.41;5083942;28;20224;-50
2022/06/14 00:59:18;;;;;;;11.80;3.50;;;;;;;12.83;70.29;99190.88;5085135;28;20452;-50
2022/06/14 01:01:46;;;;;;;9.23;3.60;;;;;;;12.79;69.16;99184.31;5084589;28;20739;-50
2022/06/14 01:04:18;;;;;;;9.88;4.00;;;;;;;12.81;69.13;99189.41;5084716;28;20913;-51
2022/06/14 01:06:55;;;;;;;10.43;3.83;;;;;;;12.74;69.87;99178.69;5084902;28;20296;-51
2022/06/14 01:09:25;;;;;;;10.53;4.17;;;;;;;12.74;69.05;99177.88;5082367;28;20217;-50
2022/06/14 01:11:56;;;;;;;8.77;3.90;;;;;;;12.72;68.67;99175.41;5085370;28;20270;-50
2022/06/14 01:14:30;;;;;;;6.87;3.30;;;;;;;12.69;68.90;99176.53;5084054;28;20594;-50
2022/06/14 01:16:58;;;;;;;7.17;3.70;;;;;;;12.73;68.43;99169.19;5083418;28;20272;-50
2022/06/14 01:19:27;;;;;;;9.50;3.97;;;;;;;12.73;69.02;99171.00;5083422;28;20299;-50
2022/06/14 01:22:22;;;;;;;9.50;3.87;;;;;;;12.75;69.14;99169.06;5085176;28;20706;-50
2022/06/14 01:24:49;;;;;;;8.37;3.70;;;;;;;12.78;68.68;99168.75;5084725;28;20197;-50
2022/06/14 01:27:20;;;;;;;8.17;3.87;;;;;;;12.87;68.42;99167.84;5084549;28;20190;-50
2022/06/14 01:29:52;;;;;;;5.30;3.43;;;;;;;12.83;67.47;99163.88;5081151;28;20194;-50
2022/06/14 01:32:19;;;;;;;6.87;3.40;;;;;;;12.89;66.72;99160.66;5083889;28;20192;-51
2022/06/14 01:34:51;;;;;;;7.20;3.33;;;;;;;12.91;68.12;99168.34;5081130;28;20183;-51
2022/06/14 01:37:21;;;;;;;10.43;3.60;;;;;;;12.93;67.00;99174.25;5081268;28;20573;-51
2022/06/14 01:39:48;;;;;;;11.47;3.90;;;;;;;12.96;66.38;99176.59;5084453;28;20278;-52
2022/06/14 01:42:23;;;;;;;8.60;3.10;;;;;;;12.96;66.31;99169.56;5084482;28;20296;-50
2022/06/14 01:44:59;;;;;;;10.10;3.57;;;;;;;12.90;66.22;99175.41;5084789;28;20194;-51
2022/06/14 01:47:35;;;;;;;6.23;3.50;;;;;;;12.90;66.94;99172.78;5082148;28;20192;-50
2022/06/14 01:53:11;;;;;;;6.17;3.90;;;;;;;12.73;68.12;99169.19;5082960;28;20189;-50
2022/06/14 01:55:44;;;;;;;11.93;3.90;;;;;;;12.65;67.72;99162.09;5084410;28;20208;-50
2022/06/14 01:58:19;;;;;;;7.77;3.60;;;;;;;12.62;68.73;99158.97;5082916;28;20268;-50
2022/06/14 02:00:52;;;;;;;6.87;3.73;;;;;;;12.51;69.12;99157.41;5083483;28;20197;-50
2022/06/14 02:06:19;;;;;;;9.00;4.17;;;;;;;12.39;68.21;99148.97;5082215;28;20182;-50
2022/06/14 02:08:58;;;;;;;7.83;3.53;;;;;;;12.33;68.77;99152.16;5081334;28;20206;-50
2022/06/14 02:11:31;;;;;;;6.33;3.73;;;;;;;12.29;68.35;99150.81;5081514;28;20526;-50
2022/06/14 02:14:06;;;;;;;7.77;3.70;;;;;;;12.25;70.46;99145.88;5080299;28;20303;-50
2022/06/14 02:16:40;;;;;;;6.80;3.57;;;;;;;12.20;70.12;99142.88;5080042;28;20735;-51
2022/06/14 02:19:11;;;;;;;9.77;4.07;;;;;;;12.15;71.16;99145.13;5078865;28;20305;-51
2022/06/14 02:21:43;;;;;;;8.60;3.37;;;;;;;12.15;70.92;99147.75;5080160;28;20590;-50
2022/06/14 02:24:18;;;;;;;8.10;3.63;;;;;;;12.09;70.92;99145.72;5079923;28;20242;-50
2022/06/14 02:26:51;;;;;;;7.67;3.43;;;;;;;12.07;70.85;99139.81;5070758;28;20186;-50
2022/06/14 02:29:22;;;;;;;9.87;4.60;;;;;;;12.08;71.20;99139.69;5077799;28;20210;-51
2022/06/14 02:31:56;;;;;;;11.67;3.57;;;;;;;12.06;70.76;99146.00;5070999;28;20232;-50
2022/06/14 02:34:31;;;;;;;9.77;4.00;;;;;;;12.05;71.01;99149.59;5072704;28;20200;-50
2022/06/14 02:37:05;;;;;;;8.47;3.40;;;;;;;12.08;70.18;99146.69;5080246;28;20275;-50
2022/06/14 02:39:36;;;;;;;8.37;3.47;;;;;;;12.14;69.47;99151.34;5079391;28;20542;-50
2022/06/14 02:42:08;;;;;;;5.03;3.37;;;;;;;12.13;69.90;99148.88;5080754;28;20213;-50
2022/06/14 02:44:40;;;;;;;9.47;3.50;;;;;;;12.14;69.38;99146.09;5081798;28;20277;-50
2022/06/14 02:47:15;;;;;;;12.30;3.80;;;;;;;12.12;69.50;99148.03;5081535;28;20229;-50
2022/06/14 02:49:46;;;;;;;7.47;3.70;;;;;;;12.13;70.11;99147.06;5080265;28;20251;-50
2022/06/14 02:52:17;;;;;;;13.43;3.70;;;;;;;12.18;69.89;99149.25;5079803;28;20271;-50
2022/06/14 02:54:53;;;;;;;8.87;4.23;;;;;;;12.15;70.44;99147.75;5079462;28;20201;-50
2022/06/14 02:57:27;;;;;;;9.40;3.20;;;;;;;12.10;71.77;99156.06;5081235;28;20192;-50
2022/06/14 03:00:02;;;;;;;5.97;3.63;;;;;;;12.05;72.96;99152.22;5083821;28;20265;-50
2022/06/14 03:02:37;;;;;;;7.23;3.70;;;;;;;11.99;73.28;99144.91;5080384;28;20264;-50
2022/06/14 03:05:09;;;;;;;5.47;3.43;;;;;;;11.93;74.29;99147.16;5082886;28;20191;-50
2022/06/14 03:07:44;;;;;;;12.10;4.10;;;;;;;11.94;75.35;99146.19;5081638;28;20228;-50
2022/06/14 03:10:13;;;;;;;7.13;3.97;;;;;;;11.88;74.16;99143.34;5084968;28;20197;-50
2022/06/14 03:12:46;;;;;;;11.33;3.73;;;;;;;11.80;74.62;99137.03;5082533;28;20204;-50
2022/06/14 03:15:27;;;;;;;8.47;4.10;;;;;;;11.79;75.74;99134.56;5086006;28;20210;-50
2022/06/14 03:18:02;;;;;;;12.50;4.73;;;;;;;11.82;77.04;99137.72;5084380;28;20212;-50
2022/06/14 03:20:44;;;;;;;10.30;3.83;;;;;;;11.84;78.30;99137.56;5084818;28;20286;-51
2022/06/14 03:23:25;;;;;;;9.63;4.57;;;;;;;11.86;78.30;99147.91;5103138;28;20270;-50
2022/06/14 03:26:00;;;;;;;10.07;4.60;;;;;;;11.74;77.50;99145.47;5087998;28;20213;-50
2022/06/14 03:28:36;;;;;;;12.43;4.23;;;;;;;11.80;74.20;99142.28;5082095;28;20228;-50
2022/06/14 03:31:08;;;;;;;9.70;4.57;;;;;;;11.74;74.56;99148.09;5086689;28;20205;-50
2022/06/14 03:33:40;;;;;;;6.60;4.20;;;;;;;11.70;74.56;99141.50;5085682;28;20191;-50
2022/06/14 03:36:10;;;;;;;10.33;4.60;;;;;;;11.75;75.93;99135.81;5087837;28;20203;-50
2022/06/14 03:38:43;;;;;;;11.10;4.60;;;;;;;11.78;77.44;99136.38;5084974;28;20565;-50
2022/06/14 03:41:15;;;;;;;5.37;4.17;;;;;;;11.71;76.65;99135.31;5088036;28;20265;-50
2022/06/14 03:43:42;;;;;;;9.37;4.83;;;;;;;11.65;75.33;99135.88;5083216;28;20185;-50
2022/06/14 03:46:31;;;;;;;10.53;5.77;;;;;;;11.70;75.77;99135.44;5087872;28;20251;-50
2022/06/14 03:49:04;;;;;;;9.20;5.27;;;;;;;11.71;75.50;99137.06;5085288;28;20231;-50
2022/06/14 03:51:44;;;;;;;10.47;4.30;;;;;;;11.79;76.89;99148.47;5085341;28;20187;-50
2022/06/14 03:54:42;;;;;;;9.83;4.77;;;;;;;11.79;76.14;99140.63;5086933;28;20189;-50
2022/06/14 03:57:21;;;;;;;9.73;4.70;;;;;;;11.75;76.09;99139.28;5086923;28;20202;-50
2022/06/14 04:00:05;;;;;;;9.13;4.43;;;;;;;11.74;75.79;99145.47;5085557;28;20334;-51
2022/06/14 04:02:54;;;;;;;10.10;4.90;;;;;;;11.80;75.44;99142.28;5085077;28;20692;-50
2022/06/14 04:05:36;;;;;;;8.13;4.07;;;;;;;11.81;75.24;99149.16;5085963;28;20223;-50
2022/06/14 04:08:14;;;;;;;10.47;4.53;;;;;;;11.90;76.08;99147.44;5085591;28;20214;-50
2022/06/14 04:10:45;;;;;;;10.50;4.67;;;;;;;11.90;76.58;99152.69;5101249;28;20198;-50
2022/06/14 04:13:26;;;;;;;9.30;4.07;;;;;;;11.94;75.35;99153.22;5086077;28;20296;-50
2022/06/14 04:15:59;;;;;;;7.00;4.60;;;;;;;12.03;75.69;99149.75;5085692;28;20196;-50
2022/06/14 04:18:38;;;;;;;9.17;4.90;;;;;;;12.10;75.92;99147.34;5084014;28;20212;-50
2022/06/14 04:21:17;;;;;;;8.40;4.30;;;;;;;12.12;75.90;99150.66;5083473;28;20193;-50
2022/06/14 04:23:54;;;;;;;6.73;4.47;;;;;;;12.18;74.48;99144.81;5085481;28;20625;-50
2022/06/14 04:26:28;;;;;;;12.33;4.07;;;;;;;12.22;73.85;99148.78;5084268;28;20227;-50
2022/06/14 04:29:03;;;;;;;9.97;3.83;;;;;;;12.29;73.35;99141.16;5085506;28;20269;-50
2022/06/14 04:31:35;;;;;;;8.13;4.57;;;;;;;12.35;75.46;99143.19;5084648;28;20196;-50
2022/06/14 04:34:10;;;;;;;7.40;4.50;;;;;;;12.42;76.82;99147.81;5085559;28;20198;-50
2022/06/14 04:36:44;;;;;;;6.97;4.23;;;;;;;12.45;76.72;99142.28;5084591;28;20565;-50
2022/06/14 04:39:17;;;;;;;7.13;4.70;;;;;;;12.44;76.98;99138.03;5086745;28;20693;-50
2022/06/14 04:41:49;;;;;;;9.13;4.40;;;;;;;12.50;77.76;99140.03;5085487;28;20191;-50
2022/06/14 04:44:22;;;;;;;8.40;4.70;;;;;;;12.52;78.90;99138.94;5085926;28;20195;-50
2022/06/14 04:46:57;;;;;;;9.07;4.50;;;;;;;12.54;77.92;99138.78;5083117;28;20228;-50
2022/06/14 04:49:29;;;;;;;6.87;4.17;;;;;;;12.59;77.90;99135.72;5082842;28;20216;-50
2022/06/14 04:52:02;;;;;;;10.03;5.03;;;;;;;12.57;76.54;99140.28;5086025;28;20255;-50
2022/06/14 04:54:35;;;;;;;9.27;4.27;;;;;;;12.59;76.55;99138.34;5083888;28;20203;-50
2022/06/14 04:57:06;;;;;;;9.33;4.47;;;;;;;12.60;77.16;99137.34;5084237;28;20189;-50
2022/06/14 04:59:40;;;;;;;8.83;4.87;;;;;;;12.63;78.66;99132.63;5083642;28;20561;-50
2022/06/14 05:02:13;;;;;;;8.40;5.43;;;;;;;12.68;78.45;99135.63;5084897;28;20213;-50
2022/06/14 05:04:45;;;;;;;8.07;5.25;;;;;;;12.76;78.16;99126.16;5086465;28;20424;-50
2022/06/14 05:07:20;;;;;;;11.13;4.83;;;;;;;12.76;77.31;99137.47;5089164;28;20188;-51
2022/06/14 05:10:00;;;;;;;12.17;5.13;;;;;;;12.78;77.32;99129.47;5093035;28;20192;-50
2022/06/14 05:12:33;;;;;;;10.90;5.00;;;;;;;12.84;77.40;99132.28;5093292;28;20196;-50
2022/06/14 05:15:09;;;;;;;8.47;4.80;;;;;;;12.84;76.83;99134.09;5093182;28;20189;-50
2022/06/14 05:17:44;;;;;;;11.27;5.00;;;;;;;12.88;78.45;99129.34;5092819;28;20213;-50
2022/06/14 05:20:19;;;;;;;10.30;4.90;;;;;;;12.94;78.67;99126.13;5093009;28;20842;-50
2022/06/14 05:22:56;;;;;;;9.43;4.57;;;;;;;13.02;77.82;99128.00;5092824;28;20289;-50
2022/06/14 05:25:24;;;;;;;10.70;5.10;;;;;;;13.07;78.50;99130.97;5086922;28;20192;-50
2022/06/14 05:27:58;;;;;;;9.53;5.90;;;;;;;13.07;77.58;99129.16;5083215;28;20253;-50
2022/06/14 05:30:37;;;;;;;7.73;5.20;;;;;;;13.18;78.82;99119.38;5092644;28;20276;-50
2022/06/14 05:33:12;;;;;;;11.27;5.60;;;;;;;13.25;78.07;99123.03;5082957;28;20197;-50
2022/06/14 05:35:44;;;;;;;13.97;5.37;;;;;;;13.25;76.92;99123.03;5086905;28;20252;-50
2022/06/14 05:38:25;;;;;;;8.90;5.17;;;;;;;13.37;76.69;99116.53;5092494;28;20254;-51
2022/06/14 05:41:00;;;;;;;9.40;5.47;;;;;;;13.84;76.65;99117.06;5093193;28;20200;-50
2022/06/14 05:43:31;;;;;;;8.90;5.10;;;;;;;14.39;74.42;99117.50;5092862;28;20221;-53
2022/06/14 05:46:25;;;;;;;9.67;4.80;;;;;;;14.75;73.52;99118.00;5093201;28;20230;-50
2022/06/14 05:48:58;;;;;;;8.53;5.20;;;;;;;14.94;73.19;99116.00;5092463;28;20215;-50
2022/06/14 05:51:31;;;;;;;9.77;5.10;;;;;;;15.15;71.82;99125.19;5093068;28;20226;-50
2022/06/14 05:54:04;;;;;;;10.90;4.97;;;;;;;15.32;70.74;99128.56;5092736;28;20197;-50
2022/06/14 05:56:36;;;;;;;15.33;5.90;;;;;;;15.48;70.40;99127.69;5092691;28;20214;-52
2022/06/14 05:59:08;;;;;;;14.70;5.07;;;;;;;15.67;70.56;99131.75;5092213;28;20256;-51
2022/06/14 06:01:48;;;;;;;16.60;5.90;;;;;;;15.78;69.08;99128.72;5092788;28;20191;-50
2022/06/14 06:04:22;;;;;;;10.50;5.63;;;;;;;15.94;70.25;99129.63;5092029;28;20493;-51
2022/06/14 06:06:53;;;;;;;7.03;4.80;;;;;;;16.07;67.99;99145.69;5092581;28;20190;-50
2022/06/14 06:09:26;;;;;;;13.03;5.00;;;;;;;16.27;66.29;99136.53;5092223;28;20301;-50
2022/06/14 06:11:57;;;;;;;12.00;4.70;;;;;;;16.40;64.64;99141.22;5092575;28;20199;-50
2022/06/14 06:14:32;;;;;;;9.73;4.30;;;;;;;16.48;67.26;99144.59;5088098;28;20198;-52
2022/06/14 06:17:07;;;;;;;10.27;4.50;;;;;;;16.65;66.44;99140.03;5070866;28;20563;-51
2022/06/14 06:19:46;;;;;;;9.53;4.40;;;;;;;16.84;65.05;99151.06;5072060;28;20196;-51
2022/06/14 06:22:19;;;;;;;9.10;4.17;;;;;;;16.94;64.30;99141.09;5071854;28;20241;-50
2022/06/14 06:24:50;;;;;;;9.67;4.47;;;;;;;17.08;63.29;99149.22;5071045;28;20194;-51
2022/06/14 06:27:23;;;;;;;8.30;4.17;;;;;;;17.22;64.11;99156.31;5072210;28;20202;-50
2022/06/14 06:29:54;;;;;;;11.93;4.20;;;;;;;17.34;62.88;99143.50;5072756;28;20639;-51
2022/06/14 06:32:25;;;;;;;10.33;3.90;;;;;;;17.29;63.28;99150.31;5083524;28;20214;-51
2022/06/14 06:34:53;;;;;;;8.13;3.90;;;;;;;17.43;63.33;99154.78;5088634;28;20200;-52
2022/06/14 06:37:25;;;;;;;12.67;4.40;;;;;;;17.56;61.25;99149.69;5085439;28;20192;-51
2022/06/14 06:39:58;;;;;;;9.93;3.83;;;;;;;17.58;61.66;99156.59;5092117;28;20589;-51
2022/06/14 06:42:30;;;;;;;6.13;3.63;;;;;;;17.44;61.15;99152.97;5090993;28;20192;-50
2022/06/14 06:45:02;;;;;;;10.07;3.83;;;;;;;17.55;62.34;99160.41;5092366;28;20666;-52
2022/06/14 06:47:56;;;;;;;13.77;4.27;;;;;;;17.24;61.50;99170.16;5096511;28;20334;-52
2022/06/14 06:50:25;;;;;;;12.20;4.23;;;;;;;17.24;62.62;99170.16;5096619;28;20254;-53
2022/06/14 06:53:02;;;;;;;10.73;4.07;;;;;;;17.50;62.73;99160.97;5096558;28;20238;-51
2022/06/14 06:55:40;;;;;;;6.53;3.90;;;;;;;17.56;61.02;99164.69;5096856;28;20194;-52
2022/06/14 06:58:13;;;;;;;6.20;3.67;;;;;;;17.58;61.74;99162.69;5096598;28;20216;-51
2022/06/14 07:00:43;;;;;;;9.27;4.30;;;;;;;17.61;61.65;99169.44;5095369;28;20211;-51
2022/06/14 07:03:20;;;;;;;14.13;4.20;;;;;;;17.68;60.02;99176.41;5096523;28;20200;-50
2022/06/14 07:05:51;;;;;;;6.43;3.77;;;;;;;17.69;59.06;99167.50;5094814;28;20203;-53
2022/06/14 07:08:28;;;;;;;9.97;3.90;;;;;;;17.67;58.91;99160.78;5095763;28;20204;-52
2022/06/14 07:10:57;;;;;;;9.10;4.77;;;;;;;17.53;58.30;99165.06;5096461;28;20187;-50
2022/06/14 07:13:51;;;;;;;7.03;4.17;;;;;;;17.61;59.82;99156.25;5096086;28;20198;-50
2022/06/14 07:16:41;;;;;;;7.83;3.80;;;;;;;17.69;58.75;99156.13;5096477;28;20199;-50
2022/06/14 07:19:19;;;;;;;9.10;4.37;;;;;;;17.83;57.03;99154.47;5095735;28;20669;-52
2022/06/14 07:21:54;;;;;;;9.47;4.30;;;;;;;17.85;56.64;99153.28;5096160;28;20237;-49
2022/06/14 07:24:27;;;;;;;13.37;4.27;;;;;;;17.91;57.81;99149.06;5096092;28;20202;-50
2022/06/14 07:27:02;;;;;;;8.03;4.13;;;;;;;17.83;56.33;99143.91;5096046;28;20656;-49
2022/06/14 07:29:36;;;;;;;11.07;4.37;;;;;;;18.05;57.40;99143.97;5095495;28;20261;-49
2022/06/14 07:32:08;;;;;;;8.93;4.07;;;;;;;18.25;57.61;99144.19;5095463;28;20193;-48
2022/06/14 07:34:37;;;;;;;9.07;3.80;;;;;;;18.37;56.19;99155.09;5093957;28;20189;-50
2022/06/14 07:37:12;;;;;;;8.60;4.27;;;;;;;18.39;56.93;99147.78;5094643;28;20592;-52
2022/06/14 07:39:45;;;;;;;7.13;3.90;;;;;;;18.41;53.90;99149.22;5094591;28;20204;-51
2022/06/14 07:42:19;;;;;;;6.47;3.90;;;;;;;18.57;55.44;99150.78;5095331;28;20199;-50
2022/06/14 07:44:53;;;;;;;6.73;4.40;;;;;;;18.73;56.24;99148.88;5095177;28;20244;-50
2022/06/14 07:47:30;;;;;;;7.53;4.30;;;;;;;18.90;57.86;99154.72;5094847;28;20226;-50
2022/06/14 07:50:07;;;;;;;9.90;4.57;;;;;;;19.03;55.21;99154.84;5095470;28;20193;-50
2022/06/14 07:52:42;;;;;;;10.47;3.83;;;;;;;19.02;56.81;99152.38;5093689;28;20653;-52
2022/06/14 07:55:15;;;;;;;7.83;4.57;;;;;;;19.03;55.94;99149.56;5094958;28;20195;-49
2022/06/14 07:57:46;;;;;;;7.90;3.70;;;;;;;19.02;55.59;99142.63;5093825;28;20251;-49
2022/06/14 08:03:09;;;;;;;8.73;4.07;;;;;;;19.15;55.69;99147.19;5094429;28;20201;-50
2022/06/14 08:05:40;;;;;;;8.17;3.80;;;;;;;19.12;56.43;99144.91;5095092;28;20518;-51
2022/06/14 08:08:13;;;;;;;9.13;4.00;;;;;;;19.25;56.01;99149.47;5094401;28;20207;-49
2022/06/14 08:10:47;;;;;;;8.60;4.33;;;;;;;19.38;56.24;99140.81;5094483;28;20630;-49
2022/06/14 08:13:18;;;;;;;13.07;4.57;;;;;;;19.48;55.66;99137.78;5093231;28;20606;-50
2022/06/14 08:15:49;;;;;;;8.57;4.30;;;;;;;19.74;55.60;99142.38;5094648;28;20194;-49
2022/06/14 08:18:21;;;;;;;7.43;3.63;;;;;;;19.85;54.38;99137.50;5094021;28;20204;-50
2022/06/14 08:20:55;;;;;;;9.67;4.00;;;;;;;19.98;54.27;99139.44;5092864;28;20698;-50
2022/06/14 08:23:28;;;;;;;5.80;3.90;;;;;;;20.01;53.62;99128.44;5092827;28;20681;-49
2022/06/14 08:26:05;;;;;;;16.13;4.87;;;;;;;20.03;53.94;99126.41;5094151;28;20192;-50
2022/06/14 08:28:38;;;;;;;17.23;5.47;;;;;;;20.12;53.89;99122.56;5093633;28;20273;-50
2022/06/14 08:31:13;;;;;;;9.43;4.57;;;;;;;20.26;54.62;99122.56;5093941;28;20206;-50
2022/06/14 08:33:49;;;;;;;8.07;3.97;;;;;;;20.44;55.41;99124.63;5093883;28;20207;-50
2022/06/14 08:36:23;;;;;;;12.20;4.47;;;;;;;20.59;53.75;99124.41;5093806;28;20178;-54
2022/06/14 08:38:53;;;;;;;12.13;3.93;;;;;;;20.46;53.04;99109.34;5093845;28;20260;-52
2022/06/14 08:41:36;;;;;;;6.20;3.03;;;;;;;20.57;53.86;99107.91;5093805;28;20202;-48
2022/06/14 08:44:09;;;;;;;9.77;4.00;;;;;;;20.62;54.56;99111.59;5093971;28;20261;-52
2022/06/14 08:46:41;;;;;;;7.83;4.23;;;;;;;20.65;54.47;99097.91;5093839;28;20183;-51
2022/06/14 08:49:20;;;;;;;7.33;3.80;;;;;;;20.76;52.87;99096.47;5093705;28;20207;-51
2022/06/14 08:52:03;;;;;;;8.37;4.23;;;;;;;20.82;54.17;99105.44;5094059;28;20234;-48
2022/06/14 08:54:51;;;;;;;9.33;4.00;;;;;;;20.88;53.39;99093.22;5094130;28;20191;-47
2022/06/14 08:57:42;;;;;;;9.33;4.10;;;;;;;20.97;53.17;99099.94;5094247;28;20179;-52
2022/06/14 09:00:19;;;;;;;12.57;4.07;;;;;;;20.88;52.50;99090.56;5094449;28;20233;-54
2022/06/14 09:03:22;;;;;;;7.87;4.17;;;;;;;20.96;51.89;99085.03;5092601;28;20204;-52
2022/06/14 09:06:02;;;;;;;10.50;4.20;;;;;;;21.05;52.17;99089.09;5094262;28;20197;-51
2022/06/14 09:08:56;;;;;;;8.57;4.53;;;;;;;21.18;50.81;99080.28;5092847;28;20285;-51
2022/06/14 09:12:02;;;;;;;7.33;3.90;;;;;;;21.29;50.32;99084.09;5093164;28;20645;-51
2022/06/14 09:15:12;;;;;;;8.07;4.00;;;;;;;21.35;48.94;99079.81;5093171;28;20200;-51
2022/06/14 09:18:18;;;;;;;8.93;3.97;;;;;;;21.36;49.05;99082.25;5093013;28;20233;-51
2022/06/14 09:21:05;;;;;;;9.67;4.23;;;;;;;21.44;48.47;99085.69;5092909;28;20190;-52
2022/06/14 09:23:50;;;;;;;9.47;4.13;;;;;;;21.47;48.51;99080.78;5092804;28;20219;-54
2022/06/14 09:26:34;;;;;;;8.30;3.77;;;;;;;21.52;47.63;99082.78;5093176;28;20188;-48
2022/06/14 09:29:39;;;;;;;5.30;3.53;;;;;;;21.54;47.90;99075.44;5092443;28;20737;-48
2022/06/14 09:36:02;;;;;;;9.80;3.87;;;;;;;21.76;48.06;99080.47;5092831;28;20183;-49
2022/06/14 09:39:02;;;;;;;12.97;4.20;;;;;;;21.93;47.40;99072.78;5091382;28;20215;-48
2022/06/14 09:41:51;;;;;;;8.83;4.00;;;;;;;22.03;46.22;99072.34;5056079;28;20211;-48
2022/06/14 09:44:49;;;;;;;6.80;3.93;;;;;;;22.18;48.85;99077.34;5077803;28;20224;-48
2022/06/14 09:47:27;;;;;;;8.43;4.07;;;;;;;22.23;45.48;99073.00;5061143;28;20220;-49
2022/06/14 09:50:40;;;;;;;7.87;4.10;;;;;;;22.41;44.13;99068.75;5083365;28;20199;-49
2022/06/14 09:53:31;;;;;;;7.53;3.23;;;;;;;22.34;43.93;99073.31;5091964;28;20219;-48
2022/06/14 09:56:21;;;;;;;8.40;3.70;;;;;;;22.37;43.31;99073.72;5082412;28;20201;-48
2022/06/14 09:59:19;;;;;;;8.57;3.63;;;;;;;22.14;44.13;99061.00;5079461;28;20699;-48
2022/06/14 10:01:55;;;;;;;6.77;3.33;;;;;;;22.31;43.40;99061.28;5070540;28;20221;-48
2022/06/14 10:04:35;;;;;;;8.53;3.63;;;;;;;22.21;44.90;99058.28;5070952;28;20227;-48
2022/06/14 10:07:21;;;;;;;7.47;3.60;;;;;;;22.26;45.01;99055.78;5072222;28;20357;-48
2022/06/14 10:10:11;;;;;;;7.73;3.67;;;;;;;22.51;44.48;99061.13;5075550;28;20223;-48
2022/06/14 10:13:03;;;;;;;6.37;3.47;;;;;;;22.69;43.56;99051.56;5074172;28;20223;-48
2022/06/14 10:15:40;;;;;;;7.23;3.60;;;;;;;22.67;42.60;99041.16;5071063;28;20220;-48
2022/06/14 10:18:22;;;;;;;8.07;3.50;;;;;;;22.59;42.92;99044.09;5069619;28;20224;-48
2022/06/14 10:20:58;;;;;;;7.17;3.47;;;;;;;22.78;44.23;99044.91;5070797;28;20290;-48
2022/06/14 10:23:38;;;;;;;8.20;3.87;;;;;;;22.71;42.46;99025.53;5071031;28;20229;-48
2022/06/14 10:29:16;;;;;;;4.13;3.03;;;;;;;22.93;43.90;99033.09;5070568;28;20233;-48
2022/06/14 10:32:05;;;;;;;9.00;3.87;;;;;;;22.99;42.36;99032.22;5071047;28;20201;-48
2022/06/14 10:34:37;;;;;;;10.90;3.90;;;;;;;23.09;42.53;99035.16;5069387;28;20216;-48
2022/06/14 10:37:27;;;;;;;8.70;4.10;;;;;;;23.00;42.71;99029.31;5073566;28;20232;-48
2022/06/14 10:40:14;;;;;;;5.80;3.60;;;;;;;23.08;42.06;99024.72;5089581;28;20219;-48
2022/06/14 10:42:46;;;;;;;7.50;4.40;;;;;;;23.09;42.00;99027.19;5085018;28;20239;-48
2022/06/14 10:45:38;;;;;;;8.13;3.80;;;;;;;22.94;42.68;99024.09;5075503;28;20349;-48
2022/06/14 10:48:21;;;;;;;6.40;3.63;;;;;;;23.16;43.48;99016.44;5070569;28;20227;-48
2022/06/14 10:51:05;;;;;;;7.60;3.57;;;;;;;23.23;42.89;99011.06;5070811;28;20210;-51
2022/06/14 10:53:42;;;;;;;7.97;3.70;;;;;;;23.42;41.85;99011.84;5071028;28;20666;-50
2022/06/14 10:56:29;;;;;;;8.10;3.80;;;;;;;23.46;41.89;99010.34;5070825;28;20291;-51
2022/06/14 10:59:18;;;;;;;7.47;3.53;;;;;;;23.32;41.51;99007.03;5070114;28;20229;-53
2022/06/14 11:01:53;;;;;;;8.10;3.93;;;;;;;23.30;42.53;99006.47;5071213;28;20216;-51
2022/06/14 11:04:31;;;;;;;8.30;3.57;;;;;;;23.32;41.45;98998.25;5070792;28;20711;-51
2022/06/14 11:07:18;;;;;;;9.23;4.33;;;;;;;23.29;42.10;98994.19;5070910;28;20220;-51
2022/06/14 11:10:02;;;;;;;10.67;4.10;;;;;;;23.56;43.06;98991.16;5070334;28;20217;-51
2022/06/14 11:12:43;;;;;;;8.00;3.77;;;;;;;23.59;40.93;98990.69;5075736;28;20278;-50
2022/06/14 11:15:18;;;;;;;7.33;3.30;;;;;;;23.69;42.30;98987.50;5090718;28;20767;-50
2022/06/14 11:18:17;;;;;;;10.27;3.73;;;;;;;23.85;41.09;98981.47;5090762;28;20299;-51
2022/06/14 11:20:55;;;;;;;8.77;3.80;;;;;;;23.98;41.39;98974.31;5091259;28;20214;-51
2022/06/14 11:23:28;;;;;;;8.63;3.50;;;;;;;24.27;41.13;98977.13;5090717;28;20235;-52
2022/06/14 11:26:03;;;;;;;6.90;3.70;;;;;;;24.15;41.02;98969.94;5090819;28;20223;-51
2022/06/14 11:28:36;;;;;;;10.57;3.70;;;;;;;23.92;40.95;98964.56;5089309;28;20221;-51
2022/06/14 11:31:10;;;;;;;6.00;3.50;;;;;;;24.02;39.94;98965.66;5091443;28;20237;-51
2022/06/14 11:34:20;;;;;;;7.23;3.30;;;;;;;24.20;40.46;98961.28;5093210;28;20236;-52
2022/06/14 11:37:28;;;;;;;9.73;3.90;;;;;;;24.50;39.72;98957.63;5094795;28;20346;-51
2022/06/14 11:40:02;;;;;;;5.90;3.93;;;;;;;24.32;38.86;98955.91;5094732;28;20687;-51
2022/06/14 11:42:32;;;;;;;7.60;3.60;;;;;;;24.38;40.41;98952.31;5093868;28;20240;-48
2022/06/14 11:45:14;;;;;;;6.60;3.90;;;;;;;24.35;40.14;98952.00;5084300;28;20206;-48
2022/06/14 11:47:48;;;;;;;8.60;3.73;;;;;;;24.70;41.28;98945.75;5073442;28;20230;-48
2022/06/14 11:50:25;;;;;;;8.83;3.80;;;;;;;24.67;39.55;98938.22;5074073;28;20214;-48
2022/06/14 11:53:10;;;;;;;9.20;4.23;;;;;;;24.75;39.45;98941.38;5074045;28;20241;-50
2022/06/14 11:55:42;;;;;;;5.40;3.50;;;;;;;25.08;40.00;98933.72;5073876;28;20200;-48
2022/06/14 11:58:17;;;;;;;6.67;3.47;;;;;;;25.16;39.08;98936.00;5073538;28;20234;-49
2022/06/14 12:00:57;;;;;;;7.27;3.70;;;;;;;25.28;38.84;98943.16;5073611;28;20707;-48
2022/06/14 12:03:51;;;;;;;6.60;3.63;;;;;;;25.24;38.66;98936.69;5072372;28;20222;-48
2022/06/14 12:06:32;;;;;;;8.93;4.10;;;;;;;25.07;38.79;98937.44;5072396;28;20220;-48
2022/06/14 12:09:16;;;;;;;7.33;3.90;;;;;;;25.27;37.72;98930.84;5073202;28;20319;-48
2022/06/14 12:11:54;;;;;;;5.27;3.20;;;;;;;25.42;38.34;98927.63;5071692;28;20318;-50
2022/06/14 12:15:01;;;;;;;9.30;3.87;;;;;;;25.31;37.05;98918.63;5073435;28;20228;-48
2022/06/14 12:17:31;;;;;;;8.13;3.43;;;;;;;25.38;39.34;98924.63;5058800;28;20281;-48
2022/06/14 12:20:06;;;;;;;23.43;4.30;;;;;;;25.50;39.41;98924.59;5073387;28;20220;-48
2022/06/14 12:22:42;;;;;;;8.90;3.60;;;;;;;25.36;37.37;98913.38;5073044;28;20224;-48
2022/06/14 12:28:06;;;;;;;9.53;3.60;;;;;;;25.69;37.86;98902.97;5072745;28;20231;-49
2022/06/14 12:30:36;;;;;;;9.70;3.63;;;;;;;25.68;40.08;98906.69;5073344;28;20264;-48
2022/06/14 12:33:09;;;;;;;9.30;4.03;;;;;;;25.79;37.17;98903.94;5072891;28;20725;-48
2022/06/14 12:35:43;;;;;;;8.93;4.03;;;;;;;25.98;37.03;98897.50;5072956;28;20293;-49